createdAt,value
2023-01-10T00:01:52.119Z,15.80
2023-01-10T00:04:19.696Z,14.70
2023-01-10T00:06:47.219Z,16.05
2023-01-10T00:09:14.623Z,13.78
2023-01-10T00:12:00.958Z,14.13
2023-01-10T00:14:29.395Z,13.90
2023-01-10T00:16:57.552Z,18.65
2023-01-10T00:19:25.285Z,14.07
2023-01-10T00:21:55.180Z,14.65
2023-01-10T00:24:23.977Z,16.17
2023-01-10T00:26:52.299Z,15.03
2023-01-10T00:29:27.984Z,15.93
2023-01-10T00:31:55.811Z,15.40
2023-01-10T00:34:24.089Z,16.20
2023-01-10T00:36:51.526Z,17.00
2023-01-10T00:39:21.921Z,17.90
2023-01-10T00:42:07.808Z,16.45
2023-01-10T00:44:35.278Z,14.47
2023-01-10T00:47:02.750Z,16.57
2023-01-10T00:49:30.125Z,20.10
2023-01-10T00:52:00.033Z,13.90
2023-01-10T00:54:27.867Z,16.32
2023-01-10T00:56:55.243Z,16.40
2023-01-10T00:59:23.829Z,14.35
2023-01-10T01:01:52.216Z,13.08
2023-01-10T01:04:20.298Z,20.43
2023-01-10T01:06:49.151Z,17.40
2023-01-10T01:09:17.072Z,17.17
2023-01-10T01:11:44.444Z,17.93
2023-01-10T01:14:12.010Z,16.30
2023-01-10T01:16:39.542Z,19.35
2023-01-10T01:19:07.100Z,17.45
2023-01-10T01:21:34.561Z,16.97
2023-01-10T01:24:01.989Z,18.00
2023-01-10T05:21:56.370Z,27.35
2023-01-10T05:24:24.211Z,25.08
2023-01-10T05:26:51.579Z,25.30
2023-01-10T05:29:19.091Z,19.52
2023-01-10T05:31:46.603Z,22.43
2023-01-10T05:34:14.131Z,18.57
2023-01-10T05:36:41.699Z,24.13
2023-01-10T05:39:09.260Z,21.47
2023-01-10T05:41:36.654Z,23.83
2023-01-10T05:44:04.419Z,24.40
2023-01-10T05:46:31.847Z,21.67
2023-01-10T05:48:59.287Z,21.85
2023-01-10T05:51:26.877Z,24.83
2023-01-10T05:53:54.291Z,20.43
2023-01-10T05:56:21.878Z,21.83
2023-01-10T05:58:51.458Z,22.63
2023-01-10T06:01:21.872Z,21.95
2023-01-10T06:03:49.504Z,20.40
2023-01-10T06:06:17.294Z,20.40
2023-01-10T06:08:44.837Z,19.42
2023-01-10T06:11:12.368Z,21.40
2023-01-10T06:13:39.830Z,19.20
2023-01-10T06:16:07.622Z,18.97
2023-01-10T06:18:35.128Z,16.42
2023-01-10T06:21:02.872Z,16.80
2023-01-10T06:23:39.870Z,18.30
2023-01-10T06:26:07.551Z,18.17
2023-01-10T06:28:35.070Z,18.10
2023-01-10T06:31:02.525Z,20.60
2023-01-10T06:33:30.105Z,18.60
2023-01-10T06:35:57.600Z,17.77
2023-01-10T06:38:25.082Z,20.05
2023-01-10T06:40:52.925Z,19.13
2023-01-10T06:43:20.352Z,20.30
2023-01-10T06:45:47.809Z,23.80
2023-01-10T06:48:16.394Z,20.20
2023-01-10T06:50:43.971Z,21.85
2023-01-10T06:53:11.399Z,20.73
2023-01-10T06:55:38.905Z,19.73
2023-01-10T06:58:06.639Z,20.40
2023-01-10T07:00:34.163Z,20.20
2023-01-10T07:03:03.231Z,20.10
2023-01-10T07:05:30.916Z,17.00
2023-01-10T07:08:01.511Z,16.65
2023-01-10T07:10:29.372Z,15.83
2023-01-10T07:12:57.224Z,20.72
2023-01-10T07:15:26.637Z,17.82
2023-01-10T07:17:54.759Z,19.07
2023-01-10T07:20:22.234Z,19.23
2023-01-10T07:23:00.251Z,21.10
2023-01-10T07:25:29.266Z,20.20
2023-01-10T07:27:56.825Z,17.70
2023-01-10T07:30:25.485Z,18.63
2023-01-10T07:32:57.048Z,19.50
2023-01-10T07:35:24.844Z,19.90
2023-01-10T07:37:52.427Z,21.50
2023-01-10T07:40:19.994Z,17.12
2023-01-10T07:42:47.476Z,18.80
2023-01-10T07:45:15.149Z,16.70
2023-01-10T07:47:42.757Z,16.05
2023-01-10T07:50:10.877Z,19.77
2023-01-10T07:52:38.728Z,21.55
2023-01-10T07:55:07.018Z,17.40
2023-01-10T07:57:34.439Z,20.12
2023-01-10T08:00:02.048Z,17.90
2023-01-10T08:02:32.823Z,19.45
2023-01-10T08:05:00.478Z,19.50
2023-01-10T08:07:31.823Z,19.93
2023-01-10T08:09:59.430Z,19.15
2023-01-10T08:12:26.845Z,21.15
2023-01-10T08:14:54.375Z,16.33
2023-01-10T08:17:21.811Z,20.60
2023-01-10T08:19:49.226Z,17.87
2023-01-10T08:22:16.708Z,17.50
2023-01-10T08:24:44.132Z,16.80
2023-01-10T08:27:11.720Z,18.07
2023-01-10T08:29:39.207Z,16.77
2023-01-10T08:32:06.958Z,16.60
2023-01-10T08:34:34.347Z,18.85
2023-01-10T08:37:01.954Z,18.17
2023-01-10T08:39:30.726Z,19.43
2023-01-10T08:41:58.117Z,17.40
2023-01-10T08:44:26.936Z,15.68
2023-01-10T08:46:54.895Z,17.23
2023-01-10T08:49:22.491Z,17.52
2023-01-10T08:51:49.965Z,16.70
2023-01-10T08:54:17.444Z,18.93
2023-01-10T08:56:44.836Z,18.80
2023-01-10T08:59:12.608Z,20.92
2023-01-10T09:01:40.160Z,18.42
2023-01-10T09:04:07.686Z,16.13
2023-01-10T09:06:35.194Z,16.60
2023-01-10T09:09:02.963Z,19.70
2023-01-10T09:11:30.378Z,19.43
2023-01-10T09:13:57.912Z,17.27
2023-01-10T09:16:25.547Z,17.70
2023-01-10T09:18:53.185Z,20.37
2023-01-10T09:21:20.683Z,17.07
2023-01-10T09:23:48.209Z,18.90
2023-01-10T09:26:15.618Z,19.80
2023-01-10T09:28:43.345Z,16.97
2023-01-10T09:31:12.200Z,18.27
2023-01-10T09:33:46.730Z,18.07
2023-01-10T09:36:16.091Z,16.70
2023-01-10T09:38:44.607Z,20.85
2023-01-10T09:44:06.303Z,15.83
2023-01-10T09:46:43.372Z,15.32
2023-01-10T09:49:52.492Z,18.37
2023-01-10T09:52:26.163Z,16.73
2023-01-10T09:54:55.454Z,15.70
2023-01-10T09:57:23.125Z,19.87
2023-01-10T09:59:52.058Z,18.63
2023-01-10T10:02:42.895Z,20.95
2023-01-10T16:12:54.072Z,12.03
2023-01-10T16:15:24.304Z,12.10
2023-01-10T16:17:51.936Z,11.93
2023-01-10T16:20:31.910Z,11.60
2023-01-10T16:23:00.557Z,10.50
2023-01-10T16:28:01.403Z,10.53
2023-01-10T16:30:31.971Z,13.30
2023-01-10T16:33:02.878Z,11.10
2023-01-10T16:35:31.185Z,11.00
2023-01-10T16:38:00.167Z,11.68
2023-01-10T16:40:38.374Z,8.68
2023-01-10T16:55:59.558Z,12.25
2023-01-10T16:58:27.243Z,8.57
2023-01-10T17:00:54.747Z,10.13
2023-01-10T17:03:23.686Z,11.50
2023-01-10T17:05:51.569Z,9.50
2023-01-10T17:08:21.427Z,11.97
2023-01-10T17:11:00.353Z,11.88
2023-01-10T17:13:31.991Z,13.22
2023-01-10T17:16:03.074Z,15.78
2023-01-10T17:18:30.607Z,9.78
2023-01-10T17:20:58.314Z,11.60
2023-01-10T17:23:26.877Z,13.13
2023-01-10T17:26:02.324Z,14.10
2023-01-10T17:28:29.987Z,9.67
2023-01-10T17:30:57.800Z,13.95
2023-01-10T17:33:26.298Z,12.43
2023-01-10T17:38:25.645Z,12.40
2023-01-10T17:40:53.306Z,12.28
2023-01-10T17:43:21.171Z,10.43
2023-01-10T17:45:50.870Z,10.68
2023-01-10T17:48:19.058Z,12.82
2023-01-10T17:50:48.826Z,13.43
2023-01-10T17:53:18.093Z,12.25
2023-01-10T17:55:49.100Z,15.18
2023-01-10T17:58:17.930Z,11.88
2023-01-10T18:00:46.213Z,12.18
2023-01-10T18:03:13.776Z,10.63
2023-01-10T18:05:52.591Z,12.73
2023-01-10T18:08:20.838Z,15.78
2023-01-10T18:10:48.421Z,13.58
2023-01-10T18:13:17.332Z,15.83
2023-01-10T18:15:47.877Z,14.37
2023-01-10T18:18:15.569Z,12.20
2023-01-10T18:20:44.158Z,10.93
2023-01-10T18:23:22.814Z,11.08
2023-01-10T18:25:56.603Z,9.08
2023-01-10T18:28:39.601Z,15.13
2023-01-10T18:31:18.346Z,9.50
2023-01-10T18:33:46.932Z,10.70
2023-01-10T18:36:17.007Z,9.30
2023-01-10T18:38:45.948Z,10.33
2023-01-10T18:41:15.103Z,11.05
2023-01-10T18:43:42.528Z,11.10
2023-01-10T18:46:13.441Z,10.00
2023-01-10T18:48:41.097Z,10.08
2023-01-10T18:51:10.206Z,11.20
2023-01-10T18:53:37.600Z,11.30
2023-01-10T18:56:05.613Z,8.53
2023-01-10T18:58:35.884Z,9.30
2023-01-10T19:01:15.183Z,11.13
